Terminal Aerodrome Forecast
Issued by NWS Billings, MT

Home | Current Version | Previous Version | Text Only | Print | Product List | Glossary On
Versions: 1 2 3 4 5 6 7 8 9 10 11 12 13 14 15 16 17 18 19 20 21 22 23 24 25 26 27 28
000
FTUS45 KBYZ 091720
TAFSHR
TAF
KSHR 091720Z 0918/1018 10005KT P6SM SKC
     FM100000 15006KT P6SM VCTS SCT100CB
     FM100800 17006KT P6SM BKN120
     FM101600 33012KT P6SM SCT100 BKN120=

USA.gov is the U.S. government's official web portal to all federal, state and local government web resources and services.